sensor_id;sensor_type;location;lat;lon;timestamp;pressure;altitude;pressure_sealevel;temperature;humidity
46886;BME280;32622;48.202;11.326;2023-01-27T19:07:11;1020.72;;;16.14;38.88
46886;BME280;32622;48.202;11.326;2023-01-27T19:09:15;1025.42;;;-4.20;37.93
46886;BME280;32622;48.202;11.326;2023-01-27T19:11:17;1025.30;;;-3.72;37.10
46886;BME280;32622;48.202;11.326;2023-01-27T19:13:20;1025.38;;;-3.93;36.19
46886;BME280;32622;48.202;11.326;2023-01-27T19:15:24;1025.43;;;-4.35;36.60
46886;BME280;32622;48.202;11.326;2023-01-27T19:17:27;1025.15;;;-3.14;35.53
46886;BME280;32622;48.202;11.326;2023-01-27T19:19:30;1025.00;;;-2.68;34.37
46886;BME280;32622;48.202;11.326;2023-01-27T19:21:36;1024.95;;;-2.45;34.27
46886;BME280;32622;48.202;11.326;2023-01-27T19:23:41;1025.06;;;-2.81;34.68
46886;BME280;32622;48.202;11.326;2023-01-27T19:25:45;1024.92;;;-2.45;35.12
46886;BME280;32622;48.202;11.326;2023-01-27T19:27:52;1025.10;;;-2.98;35.04
46886;BME280;32622;48.202;11.326;2023-01-27T19:29:58;1025.04;;;-2.80;34.98
46886;BME280;32622;48.202;11.326;2023-01-27T19:32:11;1025.09;;;-3.05;35.16
46886;BME280;32622;48.202;11.326;2023-01-27T19:34:19;1025.18;;;-3.32;34.74
46886;BME280;32622;48.202;11.326;2023-01-27T19:36:30;1025.03;;;-2.70;34.42
46886;BME280;32622;48.202;11.326;2023-01-27T19:38:37;1024.90;;;-2.35;33.64
46886;BME280;32622;48.202;11.326;2023-01-27T19:40:42;1024.85;;;-2.00;32.72
46886;BME280;32622;48.202;11.326;2023-01-27T19:42:47;1024.83;;;-1.93;32.21
46886;BME280;32622;48.202;11.326;2023-01-27T19:44:50;1025.12;;;-2.90;33.47
46886;BME280;32622;48.202;11.326;2023-01-27T19:46:56;1024.96;;;-2.34;32.84
46886;BME280;32622;48.202;11.326;2023-01-27T19:49:03;1024.98;;;-2.44;32.65
46886;BME280;32622;48.202;11.326;2023-01-27T19:51:09;1024.90;;;-1.95;32.73
46886;BME280;32622;48.202;11.326;2023-01-27T19:53:13;1024.97;;;-2.32;32.87
46886;BME280;32622;48.202;11.326;2023-01-27T19:55:21;1025.13;;;-2.72;32.96
46886;BME280;32622;48.202;11.326;2023-01-27T19:57:27;1025.12;;;-2.48;33.08
46886;BME280;32622;48.202;11.326;2023-01-27T19:59:31;1025.14;;;-2.39;33.38
46886;BME280;32622;48.202;11.326;2023-01-27T20:01:35;1025.24;;;-2.80;33.69
46886;BME280;32622;48.202;11.326;2023-01-27T20:03:38;1025.02;;;-2.08;32.80
46886;BME280;32622;48.202;11.326;2023-01-27T20:05:43;1024.86;;;-1.58;32.20
46886;BME280;32622;48.202;11.326;2023-01-27T20:07:47;1024.96;;;-2.11;31.97
46886;BME280;32622;48.202;11.326;2023-01-27T20:09:53;1024.83;;;-1.34;31.59
46886;BME280;32622;48.202;11.326;2023-01-27T20:11:57;1024.96;;;-1.72;30.98
46886;BME280;32622;48.202;11.326;2023-01-27T20:14:01;1025.09;;;-2.22;32.33
46886;BME280;32622;48.202;11.326;2023-01-27T20:16:06;1025.53;;;-3.59;33.37
46886;BME280;32622;48.202;11.326;2023-01-27T20:18:14;1025.17;;;-2.48;32.75
46886;BME280;32622;48.202;11.326;2023-01-27T20:20:21;1025.35;;;-3.12;32.83
46886;BME280;32622;48.202;11.326;2023-01-27T20:22:26;1025.02;;;-1.86;32.28
46886;BME280;32622;48.202;11.326;2023-01-27T20:24:30;1025.35;;;-2.96;33.12
46886;BME280;32622;48.202;11.326;2023-01-27T20:26:35;1025.11;;;-2.41;32.60
46886;BME280;32622;48.202;11.326;2023-01-27T20:28:38;1025.10;;;-2.27;32.38
46886;BME280;32622;48.202;11.326;2023-01-27T20:30:45;1025.02;;;-1.91;32.05
46886;BME280;32622;48.202;11.326;2023-01-27T20:32:51;1025.26;;;-2.54;33.13
46886;BME280;32622;48.202;11.326;2023-01-27T20:34:56;1025.34;;;-2.89;33.17
46886;BME280;32622;48.202;11.326;2023-01-27T20:36:58;1025.25;;;-2.20;33.29
46886;BME280;32622;48.202;11.326;2023-01-27T20:39:03;1025.31;;;-2.43;33.58
46886;BME280;32622;48.202;11.326;2023-01-27T20:41:09;1025.41;;;-2.95;34.31
46886;BME280;32622;48.202;11.326;2023-01-27T20:43:15;1025.29;;;-2.44;33.52
46886;BME280;32622;48.202;11.326;2023-01-27T20:45:19;1025.36;;;-2.71;33.11
46886;BME280;32622;48.202;11.326;2023-01-27T20:47:24;1025.37;;;-2.67;32.65
46886;BME280;32622;48.202;11.326;2023-01-27T20:49:27;1025.21;;;-2.10;32.52
46886;BME280;32622;48.202;11.326;2023-01-27T20:51:33;1025.39;;;-2.60;33.05
46886;BME280;32622;48.202;11.326;2023-01-27T20:53:39;1025.21;;;-2.03;32.73
46886;BME280;32622;48.202;11.326;2023-01-27T20:55:43;1025.13;;;-1.67;32.27
46886;BME280;32622;48.202;11.326;2023-01-27T20:57:48;1025.25;;;-2.08;32.03
46886;BME280;32622;48.202;11.326;2023-01-27T20:59:51;1025.25;;;-2.12;32.42
46886;BME280;32622;48.202;11.326;2023-01-27T21:01:56;1025.41;;;-2.58;32.32
46886;BME280;32622;48.202;11.326;2023-01-27T21:04:01;1025.34;;;-2.04;31.93
46886;BME280;32622;48.202;11.326;2023-01-27T21:06:08;1025.41;;;-2.26;32.26
46886;BME280;32622;48.202;11.326;2023-01-27T21:08:14;1025.29;;;-1.80;31.79
46886;BME280;32622;48.202;11.326;2023-01-27T21:10:21;1025.78;;;-3.47;33.20
46886;BME280;32622;48.202;11.326;2023-01-27T21:12:26;1025.58;;;-2.89;33.25
46886;BME280;32622;48.202;11.326;2023-01-27T21:14:31;1025.60;;;-3.09;33.24
46886;BME280;32622;48.202;11.326;2023-01-27T21:16:37;1025.68;;;-3.31;33.43
46886;BME280;32622;48.202;11.326;2023-01-27T21:18:41;1025.48;;;-2.57;33.27
46886;BME280;32622;48.202;11.326;2023-01-27T21:20:47;1025.59;;;-3.04;33.16
46886;BME280;32622;48.202;11.326;2023-01-27T21:22:54;1025.48;;;-2.47;32.57
46886;BME280;32622;48.202;11.326;2023-01-27T21:25:00;1025.37;;;-1.93;32.27
46886;BME280;32622;48.202;11.326;2023-01-27T21:27:05;1025.28;;;-1.74;32.26
46886;BME280;32622;48.202;11.326;2023-01-27T21:29:11;1025.53;;;-2.57;32.37
46886;BME280;32622;48.202;11.326;2023-01-27T21:31:18;1025.76;;;-3.13;32.88
46886;BME280;32622;48.202;11.326;2023-01-27T21:33:23;1025.83;;;-3.56;33.57
46886;BME280;32622;48.202;11.326;2023-01-27T21:35:27;1025.79;;;-3.31;33.18
46886;BME280;32622;48.202;11.326;2023-01-27T21:37:34;1025.65;;;-2.52;32.50
46886;BME280;32622;48.202;11.326;2023-01-27T21:39:41;1025.54;;;-2.22;32.01
46886;BME280;32622;48.202;11.326;2023-01-27T21:41:46;1025.54;;;-2.34;32.22
46886;BME280;32622;48.202;11.326;2023-01-27T21:43:51;1025.70;;;-2.60;32.46
46886;BME280;32622;48.202;11.326;2023-01-27T21:45:57;1025.64;;;-2.51;32.67
46886;BME280;32622;48.202;11.326;2023-01-27T21:48:00;1025.64;;;-2.67;32.36
46886;BME280;32622;48.202;11.326;2023-01-27T21:50:04;1025.61;;;-2.60;32.65
46886;BME280;32622;48.202;11.326;2023-01-27T21:52:08;1025.59;;;-2.38;32.73
46886;BME280;32622;48.202;11.326;2023-01-27T21:54:11;1025.71;;;-3.03;33.65
46886;BME280;32622;48.202;11.326;2023-01-27T21:56:16;1025.69;;;-2.79;33.58
46886;BME280;32622;48.202;11.326;2023-01-27T21:58:21;1025.75;;;-2.99;34.21
46886;BME280;32622;48.202;11.326;2023-01-27T22:17:27;1025.53;;;-1.79;36.29
46886;BME280;32622;48.202;11.326;2023-01-27T22:19:42;1025.79;;;-3.15;35.72
46886;BME280;32622;48.202;11.326;2023-01-27T22:21:46;1025.67;;;-2.73;34.64
46886;BME280;32622;48.202;11.326;2023-01-27T22:23:49;1025.70;;;-2.70;34.37
46886;BME280;32622;48.202;11.326;2023-01-27T22:25:53;1025.72;;;-3.07;34.37
46886;BME280;32622;48.202;11.326;2023-01-27T22:27:57;1025.65;;;-3.06;34.52
46886;BME280;32622;48.202;11.326;2023-01-27T22:30:11;1025.69;;;-2.99;34.51
46886;BME280;32622;48.202;11.326;2023-01-27T22:32:16;1025.72;;;-3.52;35.01
46886;BME280;32622;48.202;11.326;2023-01-27T22:34:21;1025.55;;;-2.93;34.76
46886;BME280;32622;48.202;11.326;2023-01-27T22:36:34;1025.57;;;-3.04;34.12
46886;BME280;32622;48.202;11.326;2023-01-27T22:38:37;1025.33;;;-2.36;33.62
46886;BME280;32622;48.202;11.326;2023-01-27T22:40:41;1025.40;;;-2.72;33.74
46886;BME280;32622;48.202;11.326;2023-01-27T22:42:50;1025.41;;;-2.72;33.55
46886;BME280;32622;48.202;11.326;2023-01-27T22:44:56;1025.28;;;-2.23;33.70
46886;BME280;32622;48.202;11.326;2023-01-27T22:47:10;1025.63;;;-3.64;35.71
46886;BME280;32622;48.202;11.326;2023-01-27T22:49:14;1025.56;;;-3.30;35.08
46886;BME280;32622;48.202;11.326;2023-01-27T22:51:17;1025.56;;;-3.07;34.02
46886;BME280;32622;48.202;11.326;2023-01-27T22:53:27;1025.49;;;-2.99;33.89
46886;BME280;32622;48.202;11.326;2023-01-27T22:55:32;1025.42;;;-2.75;34.02
46886;BME280;32622;48.202;11.326;2023-01-27T23:10:34;1025.51;;;-2.98;37.67
46886;BME280;32622;48.202;11.326;2023-01-27T23:12:39;1025.71;;;-3.77;36.57
46886;BME280;32622;48.202;11.326;2023-01-27T23:14:43;1025.94;;;-4.83;37.70
46886;BME280;32622;48.202;11.326;2023-01-27T23:16:47;1025.97;;;-4.92;37.91
46886;BME280;32622;48.202;11.326;2023-01-27T23:18:50;1025.93;;;-4.69;37.82
46886;BME280;32622;48.202;11.326;2023-01-27T23:28:00;1025.49;;;-2.78;37.49
46886;BME280;32622;48.202;11.326;2023-01-27T23:30:04;1025.66;;;-3.64;36.88
46886;BME280;32622;48.202;11.326;2023-01-27T23:32:08;1025.66;;;-3.74;35.87
46886;BME280;32622;48.202;11.326;2023-01-27T23:34:12;1025.64;;;-3.56;35.29
46886;BME280;32622;48.202;11.326;2023-01-27T23:36:17;1025.73;;;-3.98;35.19
46886;BME280;32622;48.202;11.326;2023-01-27T23:38:20;1025.59;;;-3.39;34.29
46886;BME280;32622;48.202;11.326;2023-01-27T23:40:23;1025.45;;;-2.78;33.63
46886;BME280;32622;48.202;11.326;2023-01-27T23:42:27;1025.86;;;-4.51;35.68
46886;BME280;32622;48.202;11.326;2023-01-27T23:44:31;1025.68;;;-3.56;34.51
46886;BME280;32622;48.202;11.326;2023-01-27T23:46:35;1025.74;;;-3.85;33.85
46886;BME280;32622;48.202;11.326;2023-01-27T23:48:38;1025.62;;;-3.35;33.85
46886;BME280;32622;48.202;11.326;2023-01-27T23:50:41;1025.83;;;-4.28;34.36
46886;BME280;32622;48.202;11.326;2023-01-27T23:52:45;1026.06;;;-4.90;36.07
46886;BME280;32622;48.202;11.326;2023-01-27T23:54:48;1025.91;;;-4.47;35.96
46886;BME280;32622;48.202;11.326;2023-01-27T23:56:52;1026.15;;;-5.38;37.23
46886;BME280;32622;48.202;11.326;2023-01-27T23:58:55;1025.97;;;-4.59;36.21
